Time;durP1;ratioP1;P1;durP2;ratioP2;P2;SDS_P1;SDS_P2;PMS_P1;PMS_P2;Temp;Humidity;BMP_temperature;BMP_pressure;BME280_temperature;BME280_humidity;BME280_pressure;Samples;Min_cycle;Max_cycle;Signal;HPM_P1;HPM_P2
2022/11/11 00:02:02;;;;;;;1999.90;999.90;;;11.90;99.90;;;;;;4983229;28;20046;-66
2022/11/11 00:04:27;;;;;;;1999.90;999.90;;;11.90;99.90;;;;;;4982788;28;20039;-66
2022/11/11 00:06:53;;;;;;;1999.90;999.90;;;11.90;99.90;;;;;;4983993;28;20054;-66
2022/11/11 00:09:18;;;;;;;1999.90;999.90;;;11.90;99.90;;;;;;4974213;28;20097;-66
2022/11/11 00:11:44;;;;;;;1999.90;999.90;;;11.90;99.90;;;;;;4987045;28;20073;-66
2022/11/11 00:14:09;;;;;;;1999.90;999.90;;;11.90;99.90;;;;;;4989247;28;20049;-66
2022/11/11 00:25:06;;;;;;;1999.90;999.90;;;11.80;99.90;;;;;;4981935;28;20047;-66
2022/11/11 00:27:32;;;;;;;1999.90;999.90;;;11.80;99.90;;;;;;4986350;28;20034;-66
2022/11/11 00:29:57;;;;;;;1999.90;999.90;;;11.90;99.90;;;;;;4978373;28;20104;-67
2022/11/11 00:32:23;;;;;;;1999.90;999.90;;;11.90;99.90;;;;;;4968548;28;20498;-66
2022/11/11 00:37:45;;;;;;;1999.90;999.90;;;11.80;99.90;;;;;;4987627;28;20396;-66
2022/11/11 00:40:12;;;;;;;1999.90;999.90;;;11.80;99.90;;;;;;4986789;28;20112;-66
2022/11/11 00:42:38;;;;;;;1999.90;999.90;;;11.80;99.90;;;;;;4987241;28;20073;-66
2022/11/11 00:45:04;;;;;;;1999.90;999.90;;;11.80;99.90;;;;;;4977608;28;20055;-66
2022/11/11 00:53:11;;;;;;;1999.90;999.90;;;11.90;99.90;;;;;;4976078;28;20079;-66
2022/11/11 00:55:37;;;;;;;1999.90;999.90;;;11.90;99.90;;;;;;4981204;28;20169;-66
2022/11/11 00:58:03;;;;;;;1999.90;999.90;;;11.90;99.90;;;;;;4982535;28;20046;-66
2022/11/11 01:00:28;;;;;;;1999.90;999.90;;;11.90;99.90;;;;;;4989069;28;20475;-67
2022/11/11 01:02:55;;;;;;;1999.90;999.90;;;11.90;99.90;;;;;;4985351;28;20034;-67
2022/11/11 01:05:21;;;;;;;1999.90;999.90;;;11.90;99.90;;;;;;4980611;28;20117;-66
2022/11/11 01:07:49;;;;;;;1999.90;999.90;;;11.90;99.90;;;;;;4991056;28;20115;-66
2022/11/11 01:10:36;;;;;;;1999.90;999.90;;;11.90;99.90;;;;;;4972592;28;20129;-66
2022/11/11 01:13:13;;;;;;;1999.90;999.90;;;11.90;99.90;;;;;;4986355;28;20085;-66
2022/11/11 01:15:40;;;;;;;1999.90;999.90;;;11.90;99.90;;;;;;4989999;28;20038;-66
2022/11/11 01:18:08;;;;;;;1999.90;999.90;;;11.90;99.90;;;;;;5002322;28;20456;-66
2022/11/11 01:20:36;;;;;;;1999.90;999.90;;;11.90;99.90;;;;;;5005444;28;20088;-67
2022/11/11 01:23:05;;;;;;;1999.90;999.90;;;11.90;99.90;;;;;;4990523;28;20038;-66
2022/11/11 01:25:39;;;;;;;1999.90;999.90;;;11.90;99.90;;;;;;4971647;28;20402;-66
2022/11/11 01:28:06;;;;;;;1999.90;999.90;;;11.90;99.90;;;;;;4990049;28;20041;-66
2022/11/11 01:30:32;;;;;;;1999.90;999.90;;;11.90;99.90;;;;;;5009778;28;20446;-66
2022/11/11 01:32:59;;;;;;;1999.90;999.90;;;11.80;99.90;;;;;;4993730;28;20092;-66
2022/11/11 01:35:24;;;;;;;1999.90;999.90;;;11.90;99.90;;;;;;4993068;28;20538;-67
2022/11/11 01:37:50;;;;;;;1999.90;999.90;;;11.80;99.90;;;;;;5011779;28;20074;-66
2022/11/11 01:40:16;;;;;;;1999.90;999.90;;;11.80;99.90;;;;;;4993455;28;20056;-66
2022/11/11 01:42:49;;;;;;;1999.90;999.90;;;11.80;99.90;;;;;;4992590;28;20049;-67
2022/11/11 01:46:07;;;;;;;1999.90;999.90;;;11.90;99.90;;;;;;4990460;28;20506;-67
2022/11/11 01:51:36;;;;;;;1999.90;999.90;;;11.90;99.90;;;;;;4992067;28;20045;-66
2022/11/11 01:54:15;;;;;;;1999.90;999.90;;;11.90;99.90;;;;;;4986067;28;20042;-67
2022/11/11 01:56:42;;;;;;;1999.90;999.90;;;11.90;99.90;;;;;;4971491;28;20447;-66
2022/11/11 01:59:12;;;;;;;1999.90;999.90;;;11.90;99.90;;;;;;4977626;28;20473;-67
2022/11/11 02:01:39;;;;;;;1999.90;999.90;;;11.90;99.90;;;;;;4971171;28;20434;-67
2022/11/11 02:06:54;;;;;;;1999.90;999.90;;;11.90;99.90;;;;;;5010996;28;20046;-66
2022/11/11 02:09:21;;;;;;;1999.90;999.90;;;11.90;99.90;;;;;;4990791;28;20074;-66
2022/11/11 02:14:42;;;;;;;1999.90;999.90;;;11.90;99.90;;;;;;5008724;28;20069;-67
2022/11/11 02:17:10;;;;;;;1999.90;999.90;;;11.90;99.90;;;;;;4992869;28;20119;-66
2022/11/11 02:19:56;;;;;;;1999.90;999.90;;;11.90;99.90;;;;;;5004375;28;20042;-67
2022/11/11 02:22:56;;;;;;;1999.90;999.90;;;11.90;99.90;;;;;;4979764;28;20050;-67
2022/11/11 02:25:26;;;;;;;1999.90;999.90;;;11.90;99.90;;;;;;4998615;28;20095;-66
2022/11/11 02:27:55;;;;;;;1999.90;999.90;;;11.90;99.90;;;;;;5002621;28;20061;-66
2022/11/11 02:30:21;;;;;;;1999.90;999.90;;;11.90;99.90;;;;;;4978007;28;20046;-66
2022/11/11 02:32:49;;;;;;;1999.90;999.90;;;11.90;99.90;;;;;;5005443;28;20099;-66
2022/11/11 02:35:23;;;;;;;1999.90;999.90;;;11.90;99.90;;;;;;4992310;28;20436;-66
2022/11/11 02:37:51;;;;;;;1999.90;999.90;;;11.90;99.90;;;;;;4987297;28;20062;-66
2022/11/11 02:41:55;;;;;;;1999.90;999.90;;;11.90;99.90;;;;;;4988713;28;20065;-66
2022/11/11 02:43:24;;;;;;;1999.90;999.90;;;11.90;99.90;;;;;;4992615;28;20056;-66
2022/11/11 02:45:50;;;;;;;1999.90;999.90;;;11.80;99.90;;;;;;4973802;28;20047;-67
2022/11/11 02:48:16;;;;;;;1999.90;999.90;;;11.80;99.90;;;;;;4982776;28;20593;-66
2022/11/11 02:50:42;;;;;;;1999.90;999.90;;;11.80;99.90;;;;;;4990845;28;20494;-66
2022/11/11 02:53:08;;;;;;;1999.90;999.90;;;11.80;99.90;;;;;;4985069;28;20056;-66
2022/11/11 02:55:33;;;;;;;1999.90;999.90;;;11.70;99.90;;;;;;4990182;28;20388;-66
2022/11/11 02:57:59;;;;;;;1999.90;999.90;;;11.70;99.90;;;;;;4991187;28;20073;-67
2022/11/11 03:00:25;;;;;;;1999.90;999.90;;;11.60;99.90;;;;;;4982350;28;20089;-66
2022/11/11 03:02:51;;;;;;;1999.90;999.90;;;11.60;99.90;;;;;;4988293;28;20038;-66
2022/11/11 03:05:16;;;;;;;1999.90;999.90;;;11.60;99.90;;;;;;5009655;28;20037;-66
2022/11/11 03:07:42;;;;;;;1999.90;999.90;;;11.60;99.90;;;;;;4991538;28;20049;-67
2022/11/11 03:10:08;;;;;;;1999.90;999.90;;;11.60;99.90;;;;;;4979097;28;20069;-66
2022/11/11 03:12:33;;;;;;;1999.90;999.90;;;11.50;99.90;;;;;;4991675;28;20060;-66
2022/11/11 03:14:59;;;;;;;1999.90;999.90;;;11.50;99.90;;;;;;5008090;28;20046;-66
2022/11/11 03:17:39;;;;;;;1999.90;999.90;;;11.50;99.90;;;;;;4998115;28;20073;-66
2022/11/11 03:23:08;;;;;;;1999.90;999.90;;;11.40;99.90;;;;;;4982244;28;20041;-66
2022/11/11 03:25:37;;;;;;;1999.90;999.90;;;11.40;99.90;;;;;;4978105;28;20045;-66
2022/11/11 03:28:17;;;;;;;1999.90;999.90;;;11.40;99.90;;;;;;4987811;28;20046;-66
2022/11/11 03:30:45;;;;;;;1999.90;999.90;;;11.40;99.90;;;;;;4988091;28;20100;-67
2022/11/11 03:33:11;;;;;;;1999.90;999.90;;;11.40;99.90;;;;;;4991585;28;20038;-66
2022/11/11 03:35:38;;;;;;;1999.90;999.90;;;11.40;99.90;;;;;;4989711;28;20156;-66
2022/11/11 03:38:23;;;;;;;1999.90;999.90;;;11.30;99.90;;;;;;4983344;28;20042;-66
2022/11/11 03:40:55;;;;;;;1999.90;999.90;;;11.30;99.90;;;;;;4976663;28;20057;-66
2022/11/11 03:43:26;;;;;;;1999.90;999.90;;;11.30;99.90;;;;;;5003052;28;20046;-66
2022/11/11 03:45:53;;;;;;;1999.90;999.90;;;11.30;99.90;;;;;;4969244;28;20052;-66
2022/11/11 03:48:19;;;;;;;1999.90;999.90;;;11.30;99.90;;;;;;4991625;28;20113;-66
2022/11/11 03:50:46;;;;;;;1999.90;999.90;;;11.30;99.90;;;;;;4991705;28;20169;-66
2022/11/11 03:53:13;;;;;;;1999.90;999.90;;;11.30;99.90;;;;;;4985118;28;20053;-66
2022/11/11 03:55:39;;;;;;;1999.90;999.90;;;11.20;99.90;;;;;;4968752;28;20037;-66
2022/11/11 03:58:05;;;;;;;1999.90;999.90;;;11.20;99.90;;;;;;4985119;28;20496;-66
2022/11/11 04:00:31;;;;;;;1999.90;999.90;;;11.20;99.90;;;;;;4989975;28;20131;-66
2022/11/11 04:10:21;;;;;;;1999.90;999.90;;;11.20;99.90;;;;;;4987725;28;20073;-66
2022/11/11 04:11:32;;;;;;;1999.90;999.90;;;11.20;99.90;;;;;;5003609;28;20129;-66
2022/11/11 04:16:55;;;;;;;1999.90;999.90;;;11.20;99.90;;;;;;4977536;28;20039;-66
2022/11/11 04:22:04;;;;;;;1999.90;999.90;;;11.20;99.90;;;;;;4996867;28;20041;-66
2022/11/11 04:27:16;;;;;;;1999.90;999.90;;;11.20;99.90;;;;;;5007359;28;20041;-66
2022/11/11 04:29:42;;;;;;;1999.90;999.90;;;11.20;99.90;;;;;;4990766;28;20065;-67
2022/11/11 04:34:59;;;;;;;1999.90;999.90;;;11.20;99.90;;;;;;4998762;28;20405;-66
2022/11/11 04:37:27;;;;;;;1999.90;999.90;;;11.20;99.90;;;;;;5008320;28;20440;-66
2022/11/11 04:42:40;;;;;;;1999.90;999.90;;;11.10;99.90;;;;;;4987021;28;20125;-66
2022/11/11 04:45:26;;;;;;;1999.90;999.90;;;11.10;99.90;;;;;;4982988;28;20045;-66
2022/11/11 04:47:52;;;;;;;1999.90;999.90;;;11.10;99.90;;;;;;4974780;28;20098;-66
2022/11/11 04:50:17;;;;;;;1999.90;999.90;;;11.10;99.90;;;;;;4988924;28;20128;-66
2022/11/11 04:52:43;;;;;;;1999.90;999.90;;;11.10;99.90;;;;;;4987565;28;20080;-66
2022/11/11 04:57:53;;;;;;;1999.90;999.90;;;11.10;99.90;;;;;;5005425;28;20054;-66
2022/11/11 05:00:18;;;;;;;1999.90;999.90;;;11.10;99.90;;;;;;4970907;28;20804;-66
2022/11/11 05:08:54;;;;;;;1999.90;999.90;;;11.10;99.90;;;;;;4984815;28;20038;-66
2022/11/11 05:08:54;;;;;;;1999.90;999.90;;;11.10;99.90;;;;;;4993752;28;20418;-66
2022/11/11 05:11:20;;;;;;;1999.90;999.90;;;11.10;99.90;;;;;;5001415;28;20042;-66
2022/11/11 05:22:27;;;;;;;1999.90;999.90;;;11.00;99.90;;;;;;5001977;28;20124;-66
2022/11/11 05:27:37;;;;;;;1999.90;999.90;;;11.00;99.90;;;;;;5004209;28;20398;-66
2022/11/11 05:30:04;;;;;;;1999.90;999.90;;;11.00;99.90;;;;;;4964855;28;20129;-66
2022/11/11 05:32:29;;;;;;;1999.90;999.90;;;11.00;99.90;;;;;;4971660;28;20050;-66
2022/11/11 05:34:55;;;;;;;1999.90;999.90;;;10.90;99.90;;;;;;4990051;28;20394;-67
2022/11/11 05:37:21;;;;;;;1999.90;999.90;;;10.90;99.90;;;;;;4989127;28;20124;-66
2022/11/11 05:39:46;;;;;;;1999.90;999.90;;;10.80;99.90;;;;;;4988735;28;20456;-66
2022/11/11 05:42:12;;;;;;;1999.90;999.90;;;10.80;99.90;;;;;;4989602;28;20084;-66
2022/11/11 05:44:38;;;;;;;1999.90;999.90;;;10.70;99.90;;;;;;4986221;28;20166;-66
2022/11/11 05:47:04;;;;;;;1999.90;999.90;;;10.70;99.90;;;;;;4980024;28;20099;-66
2022/11/11 05:49:30;;;;;;;1999.90;999.90;;;10.60;99.90;;;;;;5007827;28;20038;-66
2022/11/11 05:51:55;;;;;;;1999.90;999.90;;;10.60;99.90;;;;;;5004740;28;20041;-66
2022/11/11 05:54:22;;;;;;;1999.90;999.90;;;10.50;99.90;;;;;;4989240;28;20030;-66
2022/11/11 05:56:47;;;;;;;1999.90;999.90;;;10.50;99.90;;;;;;4987799;28;20035;-66
2022/11/11 05:59:13;;;;;;;1999.90;999.90;;;10.50;99.90;;;;;;4988779;28;20495;-66
2022/11/11 06:01:39;;;;;;;1999.90;999.90;;;10.50;99.90;;;;;;4987343;28;20496;-66
2022/11/11 06:04:05;;;;;;;1999.90;999.90;;;10.60;99.90;;;;;;4989131;28;20113;-66
2022/11/11 06:06:32;;;;;;;1999.90;999.90;;;10.60;99.90;;;;;;5003764;28;20042;-66
2022/11/11 06:08:57;;;;;;;1999.90;999.90;;;10.80;99.90;;;;;;4980103;28;20444;-66
2022/11/11 06:11:23;;;;;;;1999.90;999.90;;;10.80;99.90;;;;;;4976506;28;20050;-66
2022/11/11 06:13:49;;;;;;;1999.90;999.90;;;10.90;99.90;;;;;;5005927;28;20045;-66
2022/11/11 06:16:14;;;;;;;1999.90;999.90;;;11.00;99.90;;;;;;4983772;28;20073;-66
2022/11/11 06:18:40;;;;;;;1999.90;999.90;;;11.10;99.90;;;;;;4993367;28;20550;-66
2022/11/11 06:21:06;;;;;;;1999.90;999.90;;;11.10;99.90;;;;;;4991815;28;20045;-66
2022/11/11 06:23:32;;;;;;;1999.90;999.90;;;11.20;99.90;;;;;;4992663;28;20624;-66
2022/11/11 06:26:12;;;;;;;1999.90;999.90;;;11.20;99.90;;;;;;4990737;28;20042;-66
2022/11/11 06:28:40;;;;;;;1999.90;999.90;;;11.20;99.90;;;;;;4992425;28;20085;-66
2022/11/11 06:31:07;;;;;;;1999.90;999.90;;;11.20;99.90;;;;;;4992883;28;20103;-66
2022/11/11 06:33:36;;;;;;;1999.90;999.90;;;11.20;99.90;;;;;;5008648;28;20041;-66
2022/11/11 06:36:03;;;;;;;1999.90;999.90;;;11.30;99.90;;;;;;4989274;28;20462;-66
2022/11/11 06:38:28;;;;;;;1999.90;999.90;;;11.30;99.90;;;;;;4991433;28;20045;-66
2022/11/11 06:40:54;;;;;;;1999.90;999.90;;;11.30;99.90;;;;;;4990352;28;20040;-66
2022/11/11 06:43:19;;;;;;;1999.90;999.90;;;11.30;99.90;;;;;;4993032;28;20149;-66
2022/11/11 06:45:48;;;;;;;1999.90;999.90;;;11.20;99.90;;;;;;4991621;28;20045;-66
2022/11/11 06:48:14;;;;;;;1999.90;999.90;;;11.20;99.90;;;;;;4991099;28;20053;-66
2022/11/11 06:50:39;;;;;;;1999.90;999.90;;;11.20;99.90;;;;;;4976524;28;20057;-66
2022/11/11 06:53:13;;;;;;;1999.90;999.90;;;11.20;99.90;;;;;;5009943;28;20513;-66
2022/11/11 06:55:39;;;;;;;1999.90;999.90;;;11.20;99.90;;;;;;4991180;28;20371;-66
2022/11/11 06:58:15;;;;;;;1999.90;999.90;;;11.20;99.90;;;;;;5008987;28;20434;-66
2022/11/11 07:00:41;;;;;;;1999.90;999.90;;;11.20;99.90;;;;;;4992158;28;20073;-66
2022/11/11 07:03:10;;;;;;;1999.90;999.90;;;11.20;99.90;;;;;;4992188;28;20445;-66
2022/11/11 07:05:35;;;;;;;1999.90;999.90;;;11.20;99.90;;;;;;4989669;28;20046;-67
2022/11/11 07:08:03;;;;;;;1999.90;999.90;;;11.20;99.90;;;;;;4985761;28;20137;-66
2022/11/11 07:10:29;;;;;;;1999.90;999.90;;;11.20;99.90;;;;;;4988434;28;20042;-66
2022/11/11 07:12:55;;;;;;;1999.90;999.90;;;11.20;99.90;;;;;;4978902;28;20129;-67
2022/11/11 07:15:21;;;;;;;1999.90;999.90;;;11.20;99.90;;;;;;4990933;28;20117;-66
2022/11/11 07:17:46;;;;;;;1999.90;999.90;;;11.20;99.90;;;;;;4984132;28;20041;-66
2022/11/11 07:20:12;;;;;;;1999.90;999.90;;;11.30;99.90;;;;;;4991074;28;20045;-66
2022/11/11 07:22:37;;;;;;;1999.90;999.90;;;11.20;99.90;;;;;;4991637;28;20037;-66
2022/11/11 07:25:04;;;;;;;1999.90;999.90;;;11.20;99.90;;;;;;5006358;28;20034;-66
2022/11/11 07:27:29;;;;;;;1999.90;999.90;;;11.20;99.90;;;;;;4998634;28;20034;-66
2022/11/11 07:29:55;;;;;;;1999.90;999.90;;;11.20;99.90;;;;;;5000058;28;20038;-66
2022/11/11 07:32:20;;;;;;;1999.90;999.90;;;11.20;99.90;;;;;;4987315;28;20385;-66
2022/11/11 07:34:46;;;;;;;1999.90;999.90;;;11.20;99.90;;;;;;5003497;28;20448;-67
2022/11/11 07:37:11;;;;;;;1999.90;999.90;;;11.20;99.90;;;;;;4989317;28;20084;-67
2022/11/11 07:39:37;;;;;;;1999.90;999.90;;;11.30;99.90;;;;;;4963735;28;20045;-66
2022/11/11 07:42:03;;;;;;;1999.90;999.90;;;11.20;99.90;;;;;;5007486;28;20038;-67
2022/11/11 07:44:28;;;;;;;1999.90;999.90;;;11.30;99.90;;;;;;4986572;28;20038;-66
2022/11/11 07:46:54;;;;;;;1999.90;999.90;;;11.30;99.90;;;;;;4982747;28;20473;-67
2022/11/11 07:49:19;;;;;;;1999.90;999.90;;;11.30;99.90;;;;;;4991282;28;20441;-66
2022/11/11 07:51:45;;;;;;;1999.90;999.90;;;11.30;99.90;;;;;;4972403;28;20583;-67
2022/11/11 07:54:10;;;;;;;1999.90;999.90;;;11.30;99.90;;;;;;5003561;28;20439;-67
2022/11/11 07:56:36;;;;;;;1999.90;999.90;;;11.30;99.90;;;;;;4989627;28;20045;-66
2022/11/11 07:59:01;;;;;;;1999.90;999.90;;;11.30;99.90;;;;;;4972423;28;20053;-66
2022/11/11 08:01:27;;;;;;;1999.90;999.90;;;11.30;99.90;;;;;;4991155;28;20135;-66
2022/11/11 08:03:53;;;;;;;1999.90;999.90;;;11.30;99.90;;;;;;5005163;28;20045;-66
2022/11/11 08:06:20;;;;;;;1999.90;999.90;;;11.30;99.90;;;;;;4990056;28;20042;-67
2022/11/11 08:08:46;;;;;;;1999.90;999.90;;;11.30;99.90;;;;;;5004698;28;20050;-66
2022/11/11 08:11:12;;;;;;;1999.90;999.90;;;11.40;99.90;;;;;;4990651;28;20133;-66
2022/11/11 08:13:40;;;;;;;1999.90;999.90;;;11.40;99.90;;;;;;4990994;28;20053;-68
2022/11/11 08:16:11;;;;;;;1999.90;999.90;;;11.40;99.90;;;;;;4989834;28;20413;-66
2022/11/11 08:18:36;;;;;;;1999.90;999.90;;;11.40;99.90;;;;;;4990750;28;20071;-66
2022/11/11 08:21:04;;;;;;;1999.90;999.90;;;11.40;99.90;;;;;;4988591;28;20049;-66
2022/11/11 08:23:32;;;;;;;1999.90;999.90;;;11.40;99.90;;;;;;5002927;28;20554;-66
2022/11/11 08:26:03;;;;;;;1999.90;999.90;;;11.40;99.90;;;;;;4995270;28;20065;-66
2022/11/11 08:28:30;;;;;;;1999.90;999.90;;;11.40;99.90;;;;;;5003813;28;20117;-66
2022/11/11 08:30:58;;;;;;;1999.90;999.90;;;11.40;99.90;;;;;;5008562;28;20041;-66
2022/11/11 08:33:24;;;;;;;1999.90;999.90;;;11.40;99.90;;;;;;4990079;28;20044;-66
2022/11/11 08:35:53;;;;;;;1999.90;999.90;;;11.40;99.90;;;;;;4971290;28;20046;-66
2022/11/11 08:38:19;;;;;;;1999.90;999.90;;;11.40;99.90;;;;;;4989833;28;20050;-66
2022/11/11 08:40:45;;;;;;;1999.90;999.90;;;11.50;99.90;;;;;;4981777;28;20514;-66
2022/11/11 08:43:11;;;;;;;1999.90;999.90;;;11.40;99.90;;;;;;5002919;28;20080;-66
2022/11/11 08:45:36;;;;;;;1999.90;999.90;;;11.40;99.90;;;;;;4989711;28;20128;-67
2022/11/11 08:48:02;;;;;;;1999.90;999.90;;;11.40;99.90;;;;;;4999987;28;20043;-66
2022/11/11 08:50:28;;;;;;;1999.90;999.90;;;11.40;99.90;;;;;;4998265;28;20093;-66
2022/11/11 08:52:53;;;;;;;1999.90;999.90;;;11.40;99.90;;;;;;4998693;28;20052;-66
2022/11/11 08:55:19;;;;;;;1999.90;999.90;;;11.40;99.90;;;;;;4990143;28;20052;-66
2022/11/11 08:57:44;;;;;;;1999.90;999.90;;;11.40;99.90;;;;;;4978669;28;20049;-66
2022/11/11 09:00:11;;;;;;;1999.90;999.90;;;11.50;99.90;;;;;;4987689;28;20156;-66
2022/11/11 09:02:37;;;;;;;1999.90;999.90;;;11.40;99.90;;;;;;5008497;28;20068;-66
2022/11/11 09:05:05;;;;;;;1999.90;999.90;;;11.50;99.90;;;;;;4986352;28;20046;-66
2022/11/11 09:07:30;;;;;;;1999.90;999.90;;;11.40;99.90;;;;;;4983035;28;20096;-66
2022/11/11 09:09:56;;;;;;;1999.90;999.90;;;11.50;99.90;;;;;;4989637;28;20069;-66
2022/11/11 09:12:21;;;;;;;1999.90;999.90;;;11.50;99.90;;;;;;5007724;28;20049;-66
2022/11/11 09:14:48;;;;;;;1999.90;999.90;;;11.50;99.90;;;;;;5004955;28;20068;-66
2022/11/11 09:17:14;;;;;;;1999.90;999.90;;;11.50;99.90;;;;;;4972106;28;20038;-66
2022/11/11 09:19:40;;;;;;;1999.90;999.90;;;11.40;99.90;;;;;;4973612;28;20120;-66
2022/11/11 09:22:06;;;;;;;1999.90;999.90;;;11.40;99.90;;;;;;5006017;28;20394;-66
2022/11/11 09:24:31;;;;;;;1999.90;999.90;;;11.50;99.90;;;;;;4977309;28;20546;-66
2022/11/11 09:26:57;;;;;;;1999.90;999.90;;;11.40;99.90;;;;;;4972424;28;20120;-66
2022/11/11 09:29:22;;;;;;;1999.90;999.90;;;11.40;99.90;;;;;;4975442;28;20127;-66
2022/11/11 09:31:48;;;;;;;1999.90;999.90;;;11.40;99.90;;;;;;4971284;28;20046;-66
2022/11/11 09:34:14;;;;;;;1999.90;999.90;;;11.40;99.90;;;;;;4987084;28;20084;-66
2022/11/11 09:36:40;;;;;;;1999.90;999.90;;;11.30;99.90;;;;;;4970885;28;20049;-66
2022/11/11 09:39:05;;;;;;;1999.90;999.90;;;11.30;99.90;;;;;;5005131;28;20057;-66
2022/11/11 09:41:39;;;;;;;1999.90;999.90;;;11.40;99.90;;;;;;4988601;28;20044;-66
2022/11/11 09:44:33;;;;;;;1999.90;999.90;;;11.40;99.90;;;;;;4989352;28;20056;-67
2022/11/11 09:47:11;;;;;;;1999.90;999.90;;;11.30;99.90;;;;;;5006523;28;20038;-67
2022/11/11 09:50:04;;;;;;;1999.90;999.90;;;11.30;99.90;;;;;;4988794;28;20524;-66
2022/11/11 09:52:39;;;;;;;;;;;11.30;99.90;;;;;;5000338;28;20061;-66
2022/11/11 09:55:16;;;;;;;1999.90;999.90;;;11.30;99.90;;;;;;4985513;28;19921;-66
2022/11/11 09:57:57;;;;;;;1999.90;999.90;;;11.30;99.90;;;;;;4975731;28;20066;-66
2022/11/11 10:00:29;;;;;;;1999.90;999.90;;;11.30;99.90;;;;;;5010403;28;20042;-66
2022/11/11 10:03:21;;;;;;;1999.90;999.90;;;11.30;99.90;;;;;;5008716;28;20150;-67
2022/11/11 10:06:11;;;;;;;1999.90;999.90;;;11.30;99.90;;;;;;5008470;28;20046;-66
2022/11/11 10:08:46;;;;;;;1999.90;999.90;;;11.30;99.90;;;;;;4986229;28;20065;-67
2022/11/11 10:11:24;;;;;;;1999.90;999.90;;;11.30;99.90;;;;;;5003514;28;20045;-66
2022/11/11 10:13:53;;;;;;;1999.90;999.90;;;11.30;99.90;;;;;;4988270;28;20406;-67
2022/11/11 10:16:38;;;;;;;1999.90;999.90;;;11.30;99.90;;;;;;4985817;28;20434;-66
2022/11/11 10:19:09;;;;;;;1999.90;999.90;;;11.30;99.90;;;;;;5006547;28;20050;-66
2022/11/11 10:21:48;;;;;;;1999.90;999.90;;;11.40;99.90;;;;;;4986982;28;20477;-67
2022/11/11 10:24:29;;;;;;;1999.90;999.90;;;11.30;99.90;;;;;;4986690;28;20108;-66
2022/11/11 10:26:58;;;;;;;1999.90;999.90;;;11.40;99.90;;;;;;5002323;28;20057;-66
2022/11/11 10:29:26;;;;;;;1999.90;999.90;;;11.40;99.90;;;;;;4971523;28;20041;-67
2022/11/11 10:32:00;;;;;;;1999.90;999.90;;;11.40;99.90;;;;;;4989141;28;20060;-66
2022/11/11 10:34:32;;;;;;;1999.90;999.90;;;11.40;99.90;;;;;;4970552;28;20092;-66
2022/11/11 10:36:59;;;;;;;1999.90;999.90;;;11.40;99.90;;;;;;4979481;28;20084;-67
2022/11/11 10:39:47;;;;;;;1999.90;999.90;;;11.40;99.90;;;;;;4989191;28;20108;-66
2022/11/11 10:42:16;;;;;;;1999.90;999.90;;;11.40;99.90;;;;;;5003808;28;20049;-67
2022/11/11 10:44:42;;;;;;;1999.90;999.90;;;11.40;99.90;;;;;;4987019;28;20080;-66
2022/11/11 10:47:11;;;;;;;1999.90;999.90;;;11.40;99.90;;;;;;4988027;28;20121;-66
2022/11/11 10:49:51;;;;;;;1999.90;999.90;;;11.50;99.90;;;;;;4989053;28;20145;-66
2022/11/11 10:52:30;;;;;;;1999.90;999.90;;;11.50;99.90;;;;;;5007617;28;20392;-67
2022/11/11 10:55:13;;;;;;;1999.90;999.90;;;11.50;99.90;;;;;;4988999;28;20057;-67
2022/11/11 10:57:51;;;;;;;1999.90;999.90;;;11.60;99.90;;;;;;4968182;28;20050;-68
2022/11/11 11:00:16;;;;;;;1999.90;999.90;;;11.60;99.90;;;;;;5003108;28;20053;-67
2022/11/11 11:03:07;;;;;;;1999.90;999.90;;;11.60;99.90;;;;;;4983003;28;20414;-67
2022/11/11 11:05:59;;;;;;;1999.90;999.90;;;11.60;99.90;;;;;;5000575;28;20479;-66
2022/11/11 11:08:34;;;;;;;1999.90;999.90;;;11.60;99.90;;;;;;4990990;28;20064;-66
2022/11/11 11:11:06;;;;;;;1999.90;999.90;;;11.70;99.90;;;;;;4991018;28;20046;-66
2022/11/11 11:13:48;;;;;;;1999.90;999.90;;;11.70;99.90;;;;;;4975091;28;20369;-67
2022/11/11 11:16:22;;;;;;;1999.90;999.90;;;11.70;99.90;;;;;;4989842;28;20038;-66
2022/11/11 11:19:16;;;;;;;1999.90;999.90;;;11.80;99.90;;;;;;4984927;28;20092;-66
2022/11/11 11:21:49;;;;;;;;;;;11.80;99.90;;;;;;4983255;28;20042;-67
2022/11/11 11:24:36;;;;;;;1999.90;999.90;;;11.80;99.90;;;;;;5009573;28;20455;-67
2022/11/11 11:27:08;;;;;;;1999.90;999.90;;;11.80;99.90;;;;;;4990840;28;20052;-66
2022/11/11 11:29:35;;;;;;;1999.90;999.90;;;11.80;99.90;;;;;;5007378;28;20073;-67
2022/11/11 11:32:12;;;;;;;1999.90;999.90;;;11.80;99.90;;;;;;5004413;28;20045;-67
2022/11/11 11:34:55;;;;;;;1999.90;999.90;;;11.80;99.90;;;;;;4990184;28;20391;-67
2022/11/11 11:37:23;;;;;;;1999.90;999.90;;;11.80;99.90;;;;;;5001648;28;20052;-66
2022/11/11 11:40:01;;;;;;;1999.90;999.90;;;11.90;99.90;;;;;;4987838;28;20084;-66
2022/11/11 11:42:29;;;;;;;1999.90;999.90;;;11.90;99.90;;;;;;4991467;28;20038;-67
2022/11/11 11:44:54;;;;;;;1999.90;999.90;;;11.90;99.90;;;;;;4975235;28;20041;-67
2022/11/11 11:47:48;;;;;;;1999.90;999.90;;;11.90;99.90;;;;;;4990336;28;20042;-66
2022/11/11 11:50:23;;;;;;;1999.90;999.90;;;11.90;99.90;;;;;;4989798;28;20049;-67
2022/11/11 11:53:14;;;;;;;1999.90;999.90;;;11.90;99.90;;;;;;4986160;28;20057;-67
2022/11/11 11:56:09;;;;;;;1999.90;999.90;;;11.90;99.90;;;;;;4982070;28;20053;-66
2022/11/11 11:58:37;;;;;;;1999.90;999.90;;;11.90;99.90;;;;;;4990305;28;20050;-66
2022/11/11 12:01:17;;;;;;;1999.90;999.90;;;12.00;99.90;;;;;;4982281;28;20046;-66
2022/11/11 12:03:53;;;;;;;1999.90;999.90;;;12.00;99.90;;;;;;5006871;28;20041;-66
2022/11/11 12:06:26;;;;;;;1999.90;999.90;;;12.00;99.90;;;;;;5000881;28;20080;-67
2022/11/11 12:08:57;;;;;;;;;;;11.90;99.90;;;;;;4968367;28;20149;-66
2022/11/11 12:11:38;;;;;;;1999.90;999.90;;;12.00;99.90;;;;;;4972486;28;19921;-66
2022/11/11 12:14:32;;;;;;;1999.90;999.90;;;12.00;99.90;;;;;;4985817;28;20486;-66
2022/11/11 12:17:06;;;;;;;1999.90;999.90;;;12.00;99.90;;;;;;4966714;28;20044;-67
2022/11/11 12:20:02;;;;;;;1999.90;999.90;;;12.00;99.90;;;;;;4985093;28;20046;-67
2022/11/11 12:23:09;;;;;;;1999.90;999.90;;;12.00;99.90;;;;;;4988068;28;20046;-66
2022/11/11 12:25:46;;;;;;;1999.90;999.90;;;12.00;99.90;;;;;;4998279;28;20457;-67
2022/11/11 12:28:51;;;;;;;1999.90;999.90;;;12.00;99.90;;;;;;5002212;28;20046;-67
2022/11/11 12:31:43;;;;;;;1999.90;999.90;;;12.00;99.90;;;;;;4974027;28;20045;-66
2022/11/11 12:34:33;;;;;;;1999.90;999.90;;;12.00;99.90;;;;;;5003013;28;20402;-66
2022/11/11 12:37:13;;;;;;;1999.90;999.90;;;12.10;99.90;;;;;;5006175;28;20092;-67
2022/11/11 12:39:51;;;;;;;1999.90;999.90;;;12.00;99.90;;;;;;4988225;28;20502;-67
2022/11/11 12:42:38;;;;;;;1999.90;999.90;;;12.00;99.90;;;;;;4974213;28;20044;-66
2022/11/11 12:45:30;;;;;;;1999.90;999.90;;;12.00;99.90;;;;;;4990147;28;20042;-66
2022/11/11 12:48:09;;;;;;;1999.90;999.90;;;12.00;99.90;;;;;;4995004;28;20065;-67
2022/11/11 12:50:54;;;;;;;1999.90;999.90;;;12.00;99.90;;;;;;4982941;28;20572;-66
2022/11/11 12:53:32;;;;;;;1999.90;999.90;;;12.00;99.90;;;;;;4990384;28;20396;-66
2022/11/11 12:56:31;;;;;;;1999.90;999.90;;;12.00;99.90;;;;;;4989359;28;20099;-67
2022/11/11 12:59:19;;;;;;;1999.90;999.90;;;11.90;99.90;;;;;;4989736;28;20081;-66
2022/11/11 13:01:56;;;;;;;1999.90;999.90;;;11.90;99.90;;;;;;4969129;28;20079;-67
2022/11/11 13:04:43;;;;;;;1999.90;999.90;;;11.90;99.90;;;;;;4989918;28;20104;-66
2022/11/11 13:07:17;;;;;;;1999.90;999.90;;;11.80;99.90;;;;;;5004177;28;20127;-66
2022/11/11 13:10:15;;;;;;;1999.90;999.90;;;11.80;99.90;;;;;;4985582;28;20065;-66
2022/11/11 13:13:12;;;;;;;1999.90;999.90;;;11.80;99.90;;;;;;4974023;28;20053;-66
2022/11/11 13:15:37;;;;;;;1999.90;999.90;;;11.70;99.90;;;;;;5005398;28;20521;-66
2022/11/11 13:18:12;;;;;;;1999.90;999.90;;;11.70;99.90;;;;;;5002426;28;20040;-66
2022/11/11 13:20:50;;;;;;;1999.90;999.90;;;11.60;99.90;;;;;;5005475;28;20050;-66
2022/11/11 13:23:15;;;;;;;1999.90;999.90;;;11.60;99.90;;;;;;4986957;28;20513;-66
2022/11/11 13:25:47;;;;;;;1999.90;999.90;;;11.60;99.90;;;;;;4985845;28;20037;-66
2022/11/11 13:28:31;;;;;;;1999.90;999.90;;;11.60;99.90;;;;;;4996941;28;20100;-66